Time;durP1;ratioP1;P1;durP2;ratioP2;P2;SDS_P1;SDS_P2;PMS_P1;PMS_P2;Temp;Humidity;BMP_temperature;BMP_pressure;BME280_temperature;BME280_humidity;BME280_pressure;Samples;Min_cycle;Max_cycle;Signal;HPM_P1;HPM_P2
2022/07/14 00:02:21;;;;;;;3.55;1.80;;;;;;;19.15;56.58;100692.97;5047671;28;20091;-71
2022/07/14 00:04:47;;;;;;;7.43;1.60;;;;;;;19.05;57.40;100702.50;5046002;28;20025;-74
2022/07/14 00:07:13;;;;;;;6.35;1.35;;;;;;;19.06;57.35;100683.31;5051684;28;20104;-70
2022/07/14 00:09:38;;;;;;;4.80;1.52;;;;;;;19.04;57.29;100682.44;5053521;28;20033;-71
2022/07/14 00:12:04;;;;;;;6.00;1.60;;;;;;;19.18;57.79;100697.34;5052900;28;20025;-72
2022/07/14 00:14:29;;;;;;;3.65;1.40;;;;;;;19.21;57.01;100687.72;5053280;28;20438;-70
2022/07/14 00:16:55;;;;;;;5.45;1.60;;;;;;;19.21;57.09;100695.59;5052836;28;20048;-72
2022/07/14 00:19:20;;;;;;;2.35;1.30;;;;;;;19.18;57.34;100697.34;5053269;28;20039;-70
2022/07/14 00:21:46;;;;;;;3.90;1.50;;;;;;;19.24;56.40;100679.06;5052736;28;20025;-69
2022/07/14 00:24:12;;;;;;;4.50;1.50;;;;;;;19.28;56.36;100687.78;5062394;28;20488;-71
2022/07/14 00:26:41;;;;;;;5.22;1.52;;;;;;;19.26;55.67;100681.66;5057036;28;20056;-73
2022/07/14 00:29:07;;;;;;;7.55;1.70;;;;;;;19.26;55.16;100671.19;5065176;28;20110;-71
2022/07/14 00:31:33;;;;;;;3.30;1.20;;;;;;;19.06;54.98;100644.06;5053237;28;20143;-70
2022/07/14 00:34:00;;;;;;;5.28;1.50;;;;;;;19.37;55.75;100696.53;5053197;28;20119;-72
2022/07/14 00:36:26;;;;;;;5.63;1.50;;;;;;;19.40;55.69;100695.69;5052643;28;20025;-71
2022/07/14 00:38:57;;;;;;;3.22;1.52;;;;;;;19.46;55.35;100692.22;5054905;28;20104;-72
2022/07/14 00:41:23;;;;;;;4.55;1.83;;;;;;;19.40;55.56;100683.47;5054262;28;20075;-70
2022/07/14 00:43:49;;;;;;;4.65;1.60;;;;;;;19.48;55.27;100696.59;5053081;28;20086;-72
2022/07/14 00:46:16;;;;;;;4.32;1.55;;;;;;;19.28;56.42;100698.25;5065513;28;20036;-72
2022/07/14 00:49:02;;;;;;;4.90;1.58;;;;;;;18.70;56.11;100615.94;5029957;28;20065;-72
2022/07/14 00:51:28;;;;;;;5.50;1.73;;;;;;;19.26;55.75;100700.00;5029908;28;20163;-71
2022/07/14 00:53:57;;;;;;;5.38;1.70;;;;;;;19.16;55.79;100679.00;5029940;28;20084;-70
2022/07/14 00:56:23;;;;;;;3.92;1.50;;;;;;;19.20;56.47;100696.47;5030097;28;20112;-69
2022/07/14 00:58:50;;;;;;;2.13;1.40;;;;;;;19.21;56.72;100692.97;5029514;28;20056;-72
2022/07/14 01:01:16;;;;;;;3.17;1.20;;;;;;;18.92;56.65;100645.75;5029093;28;20499;-71
2022/07/14 01:03:41;;;;;;;5.28;1.83;;;;;;;19.12;56.64;100697.31;5028871;28;20087;-70
2022/07/14 01:06:07;;;;;;;4.05;1.40;;;;;;;19.13;56.64;100699.03;5029244;28;20108;-72
2022/07/14 01:08:33;;;;;;;5.55;1.75;;;;;;;19.03;56.19;100709.47;5029747;28;20034;-72
2022/07/14 01:10:59;;;;;;;2.95;1.17;;;;;;;18.98;56.22;100705.06;5028721;28;20204;-71
2022/07/14 01:13:25;;;;;;;5.20;1.50;;;;;;;18.94;57.68;100709.41;5029777;28;20071;-72
2022/07/14 01:15:51;;;;;;;1.23;1.10;;;;;;;18.86;57.84;100704.09;5028074;28;20115;-72
2022/07/14 01:18:17;;;;;;;2.47;1.70;;;;;;;18.24;58.88;100638.28;4980282;28;20029;-74
2022/07/14 01:20:43;;;;;;;4.25;1.60;;;;;;;18.46;59.54;100705.56;5046508;28;20033;-71
2022/07/14 01:23:09;;;;;;;3.30;1.45;;;;;;;18.43;59.07;100706.41;5051450;28;20037;-72
2022/07/14 01:25:34;;;;;;;3.92;1.30;;;;;;;18.39;59.23;100715.06;5051251;28;20017;-72
2022/07/14 01:28:20;;;;;;;5.22;1.77;;;;;;;18.23;59.63;100714.03;5029281;28;20041;-72
2022/07/14 01:30:46;;;;;;;3.75;1.70;;;;;;;18.11;60.83;100706.97;5029126;28;20042;-71
2022/07/14 01:33:12;;;;;;;9.40;1.92;;;;;;;18.12;59.55;100711.34;5045658;28;20124;-71
2022/07/14 01:35:37;;;;;;;4.25;1.55;;;;;;;17.92;59.61;100672.78;5029244;28;20494;-71
2022/07/14 01:38:03;;;;;;;3.28;1.60;;;;;;;18.19;59.08;100702.69;5045615;28;20044;-72
2022/07/14 01:40:28;;;;;;;2.10;1.38;;;;;;;18.46;57.64;100718.63;5029169;28;20109;-71
2022/07/14 01:42:54;;;;;;;5.13;1.50;;;;;;;18.48;57.03;100701.19;5028851;28;20044;-71
2022/07/14 01:45:19;;;;;;;4.65;1.60;;;;;;;18.58;58.17;100710.88;5028867;28;20033;-71
2022/07/14 01:47:45;;;;;;;3.28;1.42;;;;;;;18.25;57.90;100663.53;5028708;28;20069;-70
2022/07/14 01:50:11;;;;;;;5.38;1.77;;;;;;;18.60;58.00;100711.75;5028971;28;20426;-71
2022/07/14 01:52:36;;;;;;;7.95;1.70;;;;;;;18.67;57.48;100723.16;5028859;28;20496;-72
2022/07/14 01:55:02;;;;;;;3.72;1.70;;;;;;;18.52;57.31;100716.91;5028716;28;20038;-71
2022/07/14 01:57:28;;;;;;;6.38;1.52;;;;;;;18.55;55.98;100722.16;5011755;28;20036;-72
2022/07/14 01:59:54;;;;;;;4.60;1.63;;;;;;;18.35;59.15;100715.91;5045110;28;20519;-71
2022/07/14 02:02:19;;;;;;;3.95;1.65;;;;;;;18.07;58.76;100693.00;5033446;28;20101;-69
2022/07/14 02:04:45;;;;;;;18.63;9.48;;;;;;;18.10;59.23;100716.53;5051024;28;20405;-72
2022/07/14 02:07:10;;;;;;;6.13;2.45;;;;;;;18.10;60.65;100713.06;5065249;28;20573;-71
2022/07/14 02:12:20;;;;;;;3.75;1.58;;;;;;;16.98;61.88;100598.66;5050914;28;20048;-76
2022/07/14 02:14:45;;;;;;;11.23;2.08;;;;;;;17.65;62.07;100724.72;5050938;28;20028;-71
2022/07/14 02:17:12;;;;;;;21.25;10.55;;;;;;;17.75;64.30;100722.22;5050487;28;20107;-70
2022/07/14 02:19:38;;;;;;;41.70;19.40;;;;;;;17.80;66.08;100727.50;5050879;28;20025;-71
2022/07/14 02:22:06;;;;;;;27.00;9.45;;;;;;;17.35;64.78;100664.34;5050575;28;20538;-70
2022/07/14 02:24:32;;;;;;;9.63;5.50;;;;;;;17.81;60.19;100718.81;5050292;28;20049;-70
2022/07/14 02:26:57;;;;;;;2.63;1.65;;;;;;;17.89;60.33;100714.53;5050168;28;20025;-70
2022/07/14 02:29:23;;;;;;;3.50;1.73;;;;;;;17.78;59.90;100719.66;5051036;28;20472;-70
2022/07/14 02:31:49;;;;;;;18.60;9.07;;;;;;;17.68;61.28;100723.00;5050766;28;20105;-71
2022/07/14 02:34:15;;;;;;;92.25;53.50;;;;;;;17.49;66.01;100728.88;5050479;28;20068;-71
2022/07/14 02:36:41;;;;;;;10.88;4.88;;;;;;;17.63;61.94;100728.19;5050709;28;20023;-71
2022/07/14 02:39:08;;;;;;;4.40;1.98;;;;;;;17.71;61.43;100738.72;5050083;28;20044;-71
2022/07/14 02:41:33;;;;;;;16.52;7.18;;;;;;;17.60;62.91;100741.19;5050765;28;20028;-70
2022/07/14 02:43:59;;;;;;;4.78;2.40;;;;;;;17.61;62.42;100745.56;5036214;28;20033;-70
2022/07/14 02:46:24;;;;;;;131.82;103.38;;;;;;;17.59;67.01;100723.78;5050446;28;20555;-72
2022/07/14 02:48:50;;;;;;;27.13;17.98;;;;;;;17.87;62.95;100729.34;5050432;28;20044;-70
2022/07/14 02:51:16;;;;;;;3.38;1.85;;;;;;;18.02;61.71;100733.00;5050125;28;20491;-71
2022/07/14 02:53:41;;;;;;;97.13;72.93;;;;;;;17.93;65.22;100741.56;5050132;28;20028;-71
2022/07/14 02:56:08;;;;;;;22.67;14.05;;;;;;;17.99;63.05;100749.50;5050265;28;20117;-71
2022/07/14 02:58:34;;;;;;;15.32;5.60;;;;;;;17.73;60.92;100671.75;5050154;28;20456;-70
2022/07/14 03:01:03;;;;;;;29.58;22.02;;;;;;;18.17;60.33;100756.69;5041901;28;20037;-71
2022/07/14 03:03:29;;;;;;;5.83;3.20;;;;;;;18.18;60.52;100747.09;5030033;28;20021;-70
2022/07/14 03:05:56;;;;;;;13.27;6.13;;;;;;;17.99;60.79;100751.25;5033915;28;20287;-69
2022/07/14 03:08:21;;;;;;;14.35;8.02;;;;;;;17.94;62.04;100752.09;5049319;28;20029;-69
2022/07/14 03:10:47;;;;;;;8.00;2.90;;;;;;;17.59;61.85;100673.31;5050021;28;20021;-70
2022/07/14 03:13:12;;;;;;;7.05;3.08;;;;;;;18.09;64.41;100759.22;5050064;28;20032;-71
2022/07/14 03:15:38;;;;;;;2.97;1.90;;;;;;;18.25;59.98;100749.78;5050254;28;20052;-68
2022/07/14 03:18:04;;;;;;;4.85;2.13;;;;;;;18.32;58.65;100742.88;5049492;28;20112;-69
2022/07/14 03:20:30;;;;;;;11.30;2.70;;;;;;;18.35;61.08;100760.34;5048802;28;20110;-70
2022/07/14 03:22:56;;;;;;;10.32;2.03;;;;;;;18.25;61.02;100759.38;5049653;28;20132;-72
2022/07/14 03:25:22;;;;;;;4.50;2.08;;;;;;;18.14;61.46;100766.22;5050248;28;20116;-70
2022/07/14 03:27:48;;;;;;;3.05;1.65;;;;;;;17.99;61.23;100759.97;5049970;28;20025;-69
2022/07/14 03:30:15;;;;;;;8.48;2.58;;;;;;;17.96;62.21;100754.72;5049964;28;20473;-71
2022/07/14 03:32:41;;;;;;;7.47;2.30;;;;;;;17.83;63.78;100765.84;5049630;28;20127;-70
2022/07/14 03:35:07;;;;;;;4.68;1.70;;;;;;;17.68;62.88;100743.03;5048844;28;20038;-70
2022/07/14 03:37:37;;;;;;;4.32;1.48;;;;;;;17.43;63.66;100743.63;5048701;28;20055;-69
2022/07/14 03:40:06;;;;;;;6.43;2.45;;;;;;;17.50;63.60;100762.81;5048103;28;20111;-69
2022/07/14 03:42:32;;;;;;;5.88;2.35;;;;;;;17.50;65.40;100755.00;5050058;28;20033;-71
2022/07/14 03:44:58;;;;;;;7.90;1.92;;;;;;;17.57;63.62;100758.56;5049932;28;20508;-70
2022/07/14 03:47:24;;;;;;;7.28;2.20;;;;;;;17.73;65.01;100768.34;5049557;28;20028;-72
2022/07/14 03:49:50;;;;;;;6.05;2.30;;;;;;;17.88;63.70;100765.06;5047732;28;20076;-69
2022/07/14 03:52:15;;;;;;;5.40;2.22;;;;;;;17.97;63.47;100774.75;5049471;28;20035;-73
2022/07/14 03:54:45;;;;;;;7.78;2.50;;;;;;;18.07;63.65;100771.38;5049531;28;20029;-69
2022/07/14 03:57:12;;;;;;;5.40;2.42;;;;;;;18.16;63.27;100781.06;5049809;28;20025;-70
2022/07/14 03:59:40;;;;;;;4.80;3.03;;;;;;;18.21;65.14;100768.91;5049767;28;20029;-70
2022/07/14 04:02:07;;;;;;;7.10;2.35;;;;;;;18.20;61.73;100777.59;5049090;28;20048;-70
2022/07/14 04:04:33;;;;;;;7.20;2.20;;;;;;;18.10;61.53;100767.91;5049565;28;20107;-71
2022/07/14 04:06:59;;;;;;;7.18;2.33;;;;;;;18.00;62.03;100780.00;5047998;28;20119;-69
2022/07/14 04:09:25;;;;;;;3.92;2.10;;;;;;;17.83;62.46;100774.56;5049756;28;20138;-70
2022/07/14 04:11:50;;;;;;;3.75;2.05;;;;;;;17.84;62.70;100781.53;5050118;28;20463;-71
2022/07/14 04:14:16;;;;;;;8.70;2.22;;;;;;;17.85;62.74;100782.41;5049331;28;20429;-70
2022/07/14 04:16:41;;;;;;;36.90;22.05;;;;;;;17.75;63.13;100774.44;5049711;28;20139;-69
2022/07/14 04:19:07;;;;;;;5.22;2.80;;;;;;;17.61;63.45;100776.91;5048829;28;20024;-70
2022/07/14 04:21:34;;;;;;;3.33;1.75;;;;;;;17.48;64.33;100781.94;5052509;28;20025;-69
2022/07/14 04:24:00;;;;;;;4.78;1.88;;;;;;;17.37;65.15;100781.78;5052881;28;20514;-70
2022/07/14 04:26:25;;;;;;;4.10;1.70;;;;;;;17.33;65.13;100783.47;5049585;28;20081;-70
2022/07/14 04:28:51;;;;;;;4.80;1.90;;;;;;;17.13;65.96;100784.06;5034200;28;20037;-71
2022/07/14 04:31:16;;;;;;;6.10;2.60;;;;;;;17.07;66.83;100799.63;5053043;28;20119;-73
2022/07/14 04:33:42;;;;;;;7.55;3.70;;;;;;;17.10;68.11;100785.75;5062455;28;20016;-71
2022/07/14 04:36:08;;;;;;;18.20;10.23;;;;;;;17.21;68.18;100794.63;5054007;28;20033;-70
2022/07/14 04:38:56;;;;;;;5.28;3.00;;;;;;;17.35;68.03;100796.56;5053102;28;20033;-70
2022/07/14 04:41:23;;;;;;;4.18;1.70;;;;;;;17.39;67.79;100790.53;5010466;28;20096;-71
2022/07/14 04:43:50;;;;;;;3.03;1.70;;;;;;;17.28;68.42;100792.97;5010647;28;20046;-71
2022/07/14 04:46:16;;;;;;;3.60;1.88;;;;;;;17.26;68.74;100774.69;5010372;28;20578;-71
2022/07/14 04:54:12;;;;;;;3.78;1.85;;;;;;;17.48;66.75;100792.38;5012036;28;20131;-70
2022/07/14 04:56:39;;;;;;;5.07;1.80;;;;;;;17.42;67.26;100782.72;5012010;28;20026;-70
2022/07/14 04:59:05;;;;;;;5.85;1.75;;;;;;;17.57;66.86;100788.16;4993680;28;20027;-71
2022/07/14 05:01:31;;;;;;;4.82;1.77;;;;;;;17.00;66.47;100671.69;5007934;28;20041;-71
2022/07/14 05:03:56;;;;;;;3.17;1.67;;;;;;;17.66;66.82;100770.84;5014995;28;20149;-71
2022/07/14 05:06:23;;;;;;;6.68;1.85;;;;;;;17.85;67.35;100782.41;5017021;28;20037;-72
2022/07/14 05:08:49;;;;;;;3.38;1.70;;;;;;;17.59;66.85;100715.94;5017186;28;20061;-72
2022/07/14 05:11:15;;;;;;;4.35;1.63;;;;;;;18.10;66.85;100786.22;5015849;28;20104;-71
2022/07/14 05:13:40;;;;;;;5.80;2.08;;;;;;;17.92;66.81;100740.72;5055325;28;20032;-72
2022/07/14 05:16:06;;;;;;;3.58;2.08;;;;;;;18.34;65.88;100789.94;5054826;28;20059;-72
2022/07/14 05:18:33;;;;;;;3.42;1.70;;;;;;;18.38;65.56;100794.34;5053542;28;20034;-70
2022/07/14 05:20:58;;;;;;;3.83;2.00;;;;;;;18.52;65.66;100789.25;5053491;28;20466;-71
2022/07/14 05:23:24;;;;;;;5.97;2.70;;;;;;;18.64;65.37;100791.09;5052824;28;20057;-70
2022/07/14 05:25:50;;;;;;;6.00;1.90;;;;;;;18.81;65.05;100797.34;5052476;28;20141;-69
2022/07/14 05:28:17;;;;;;;2.83;1.73;;;;;;;19.02;64.45;100795.81;5063218;28;20120;-69
2022/07/14 05:30:43;;;;;;;5.13;1.63;;;;;;;19.14;65.22;100797.63;5051799;28;20017;-70
2022/07/14 05:33:09;;;;;;;4.47;1.80;;;;;;;19.16;64.21;100788.91;5051164;28;20479;-71
2022/07/14 05:35:35;;;;;;;2.58;1.80;;;;;;;19.31;63.98;100795.13;5051738;28;20032;-70
2022/07/14 05:38:00;;;;;;;3.33;1.80;;;;;;;19.39;63.87;100791.69;5051844;28;20032;-71
2022/07/14 05:40:25;;;;;;;5.05;1.80;;;;;;;19.58;64.22;100796.13;5051293;28;20017;-70
2022/07/14 05:42:51;;;;;;;4.13;1.80;;;;;;;19.75;63.46;100794.50;5051139;28;20117;-70
2022/07/14 05:45:17;;;;;;;9.23;2.08;;;;;;;19.87;63.55;100791.94;5051669;28;20467;-70
2022/07/14 05:47:42;;;;;;;2.88;1.50;;;;;;;20.08;62.54;100784.16;5050780;28;20062;-72
2022/07/14 05:50:09;;;;;;;3.13;1.52;;;;;;;19.88;62.43;100733.41;5050736;28;20501;-71
2022/07/14 05:52:34;;;;;;;7.63;2.00;;;;;;;20.33;62.49;100801.69;5051476;28;20056;-70
2022/07/14 05:55:00;;;;;;;24.48;10.55;;;;;;;20.48;62.15;100776.34;5036148;28;20475;-71
2022/07/14 05:57:26;;;;;;;13.63;5.38;;;;;;;20.62;61.16;100789.47;5051242;28;20549;-70
2022/07/14 05:59:52;;;;;;;6.57;1.90;;;;;;;20.66;61.35;100785.97;5051052;28;20041;-70
2022/07/14 06:02:17;;;;;;;7.03;2.03;;;;;;;20.72;61.12;100775.50;5051176;28;20031;-70
2022/07/14 06:04:43;;;;;;;5.88;1.75;;;;;;;20.89;59.62;100772.03;5051520;28;20120;-70
2022/07/14 06:07:09;;;;;;;5.15;1.95;;;;;;;21.07;60.25;100782.50;5051169;28;20394;-69
2022/07/14 06:09:36;;;;;;;5.82;2.63;;;;;;;21.23;59.74;100787.72;5051120;28;20067;-70
2022/07/14 06:12:05;;;;;;;5.65;1.90;;;;;;;21.33;60.43;100786.81;5050924;28;20033;-69
2022/07/14 06:14:31;;;;;;;3.80;1.38;;;;;;;21.34;54.63;100781.56;5050945;28;20562;-69
2022/07/14 06:16:57;;;;;;;3.88;1.65;;;;;;;21.42;55.47;100773.69;5050969;28;20116;-70
2022/07/14 06:19:22;;;;;;;3.03;1.30;;;;;;;21.54;55.17;100790.28;5050938;28;20410;-71
2022/07/14 06:21:47;;;;;;;5.32;1.30;;;;;;;21.70;53.03;100778.84;5048464;28;20112;-71
2022/07/14 06:24:13;;;;;;;2.78;1.42;;;;;;;21.72;55.00;100787.63;5038535;28;20041;-70
2022/07/14 06:26:38;;;;;;;2.75;1.38;;;;;;;21.42;57.08;100726.41;5040493;28;20030;-71
2022/07/14 06:29:04;;;;;;;7.72;1.40;;;;;;;21.85;53.76;100774.44;5042880;28;20043;-73
2022/07/14 06:31:34;;;;;;;4.20;1.63;;;;;;;21.92;54.88;100779.63;5045626;28;20467;-72
2022/07/14 06:34:00;;;;;;;3.55;1.48;;;;;;;21.69;56.02;100745.56;5038834;28;20079;-72
2022/07/14 06:36:26;;;;;;;4.40;1.63;;;;;;;21.79;54.39;100721.00;5041395;28;20021;-72
2022/07/14 06:38:51;;;;;;;3.22;1.40;;;;;;;22.31;54.63;100776.78;5039412;28;20037;-70
2022/07/14 06:41:20;;;;;;;2.47;1.40;;;;;;;21.94;53.12;100704.28;5040807;28;20021;-73
2022/07/14 06:43:46;;;;;;;7.28;1.70;;;;;;;21.90;53.16;100701.66;5041009;28;20407;-71
2022/07/14 06:46:16;;;;;;;2.05;1.73;;;;;;;22.46;54.87;100774.06;5039210;28;20036;-70
2022/07/14 06:48:42;;;;;;;5.28;1.42;;;;;;;22.39;54.14;100763.59;5039925;28;20033;-72
2022/07/14 06:51:08;;;;;;;1.95;1.20;;;;;;;22.51;54.11;100781.06;5037346;28;20031;-71
2022/07/14 06:53:33;;;;;;;3.08;1.25;;;;;;;22.56;50.11;100771.38;5032921;28;20124;-70
2022/07/14 06:55:59;;;;;;;11.43;3.30;;;;;;;22.66;50.14;100774.81;5050257;28;20025;-71
2022/07/14 06:58:24;;;;;;;6.80;1.92;;;;;;;22.83;49.92;100774.66;5039436;28;20410;-70
2022/07/14 07:00:49;;;;;;;2.78;1.52;;;;;;;22.99;48.63;100760.47;5041474;28;20037;-71
2022/07/14 07:03:15;;;;;;;2.33;1.25;;;;;;;23.19;49.35;100760.31;5040673;28;20039;-71
2022/07/14 07:08:25;;;;;;;4.07;1.30;;;;;;;23.18;50.58;100769.09;5049691;28;20175;-72
2022/07/14 07:10:51;;;;;;;2.83;1.50;;;;;;;23.17;50.73;100761.22;5050314;28;20051;-72
2022/07/14 07:13:17;;;;;;;2.40;1.40;;;;;;;23.42;49.74;100753.91;5049326;28;20549;-72
2022/07/14 07:15:42;;;;;;;3.05;1.42;;;;;;;23.42;50.66;100762.66;5049210;28;20025;-70
2022/07/14 07:18:08;;;;;;;3.42;1.25;;;;;;;23.51;50.79;100747.63;5049513;28;20017;-72
2022/07/14 07:20:35;;;;;;;2.78;1.10;;;;;;;23.69;47.58;100751.78;5048934;28;20017;-74
2022/07/14 07:23:01;;;;;;;3.92;1.23;;;;;;;23.49;46.78;100691.44;5049453;28;20909;-70
2022/07/14 07:25:27;;;;;;;3.30;1.30;;;;;;;23.78;46.28;100690.19;5030160;28;20048;-71
2022/07/14 07:27:52;;;;;;;2.75;1.45;;;;;;;24.19;44.32;100728.28;5047914;28;20025;-73
2022/07/14 07:30:18;;;;;;;2.92;1.30;;;;;;;24.21;46.46;100737.94;5049171;28;20033;-71
2022/07/14 07:32:44;;;;;;;3.60;1.25;;;;;;;24.21;44.19;100730.00;5049275;28;20044;-70
2022/07/14 07:35:09;;;;;;;2.30;1.17;;;;;;;24.42;44.52;100727.06;5046002;28;20029;-72
2022/07/14 07:37:35;;;;;;;7.95;1.80;;;;;;;24.70;43.75;100732.78;5049075;28;20094;-71
2022/07/14 07:40:00;;;;;;;6.03;1.13;;;;;;;24.69;42.71;100708.13;5048893;28;20064;-70
2022/07/14 07:42:26;;;;;;;3.13;1.13;;;;;;;25.03;40.06;100733.94;5049232;28;20124;-69
2022/07/14 07:44:53;;;;;;;2.00;1.20;;;;;;;25.17;39.89;100722.19;5046229;28;20063;-71
2022/07/14 07:47:19;;;;;;;2.35;1.10;;;;;;;25.35;40.78;100721.84;5048800;28;20089;-72
2022/07/14 07:49:44;;;;;;;3.05;1.20;;;;;;;25.46;47.28;100723.41;5048978;28;20025;-70
2022/07/14 07:52:10;;;;;;;3.63;1.48;;;;;;;25.42;42.11;100711.16;5049036;28;20032;-70
2022/07/14 07:54:36;;;;;;;11.00;1.80;;;;;;;25.42;42.41;100713.81;5048913;28;20098;-71
2022/07/14 07:57:01;;;;;;;4.15;1.40;;;;;;;25.43;41.65;100705.00;5050873;28;20029;-69
2022/07/14 07:59:27;;;;;;;2.78;1.20;;;;;;;25.60;40.13;100702.84;5053430;28;20021;-70
2022/07/14 08:01:53;;;;;;;4.65;1.15;;;;;;;25.69;39.72;100704.41;5051203;28;20075;-72
2022/07/14 08:04:18;;;;;;;3.90;1.30;;;;;;;25.81;37.93;100701.50;5044752;28;20024;-73
2022/07/14 08:06:43;;;;;;;2.90;1.05;;;;;;;25.94;40.49;100704.72;5047555;28;20399;-71
2022/07/14 08:09:13;;;;;;;2.88;1.00;;;;;;;26.02;41.44;100699.28;5042884;28;20033;-70
2022/07/14 08:11:40;;;;;;;4.10;1.20;;;;;;;26.11;39.45;100706.16;5034129;28;20032;-70
2022/07/14 08:14:05;;;;;;;8.40;4.53;;;;;;;25.82;36.85;100654.75;5037583;28;20067;-70
2022/07/14 08:16:31;;;;;;;3.17;1.30;;;;;;;26.35;38.31;100706.47;5043011;28;20431;-70
2022/07/14 08:18:56;;;;;;;2.72;1.20;;;;;;;26.35;36.45;100709.13;5044110;28;20387;-71
2022/07/14 08:21:23;;;;;;;7.70;5.63;;;;;;;26.28;36.41;100684.56;5044384;28;20486;-71
2022/07/14 08:23:50;;;;;;;4.78;1.08;;;;;;;26.47;35.32;100680.53;5043360;28;20480;-74
2022/07/14 08:26:16;;;;;;;3.50;1.30;;;;;;;26.58;35.61;100692.63;5042098;28;20021;-73
2022/07/14 08:28:41;;;;;;;5.05;2.78;;;;;;;26.59;36.58;100697.00;5044084;28;20047;-72
2022/07/14 08:31:07;;;;;;;6.07;1.52;;;;;;;26.66;40.13;100698.59;5042671;28;20460;-73
2022/07/14 08:33:32;;;;;;;7.60;1.45;;;;;;;26.80;34.51;100687.66;5047566;28;20037;-71
2022/07/14 08:35:57;;;;;;;5.03;1.50;;;;;;;26.92;34.93;100684.69;5053561;28;20039;-70
2022/07/14 08:38:23;;;;;;;4.95;1.20;;;;;;;26.99;35.65;100673.91;5052979;28;20017;-71
2022/07/14 08:40:48;;;;;;;15.27;2.17;;;;;;;27.20;37.12;100677.72;5053588;28;20455;-70
2022/07/14 08:43:15;;;;;;;2.05;1.00;;;;;;;27.08;35.66;100663.06;5044576;28;20029;-70
2022/07/14 08:45:42;;;;;;;2.90;1.20;;;;;;;27.04;37.45;100677.28;5035688;28;20438;-70
2022/07/14 08:48:10;;;;;;;3.47;1.40;;;;;;;27.11;32.93;100676.22;5049079;28;20043;-75
2022/07/14 08:50:37;;;;;;;4.22;1.13;;;;;;;27.14;39.23;100673.47;5052809;28;20029;-71
2022/07/14 08:53:03;;;;;;;3.92;1.00;;;;;;;27.10;37.14;100654.16;5051023;28;20056;-71
2022/07/14 08:55:30;;;;;;;2.83;1.20;;;;;;;27.24;36.36;100653.75;5053179;28;20112;-70
2022/07/14 08:57:55;;;;;;;3.22;1.20;;;;;;;27.47;38.88;100669.91;5051736;28;20021;-70
2022/07/14 09:00:21;;;;;;;7.55;2.03;;;;;;;27.62;37.92;100668.56;5052847;28;20039;-72
2022/07/14 09:02:48;;;;;;;17.15;3.88;;;;;;;27.92;33.71;100664.94;5052989;28;20025;-70
2022/07/14 09:05:14;;;;;;;5.63;2.33;;;;;;;27.88;34.32;100634.13;5053192;28;20028;-71
2022/07/14 09:07:41;;;;;;;5.22;3.15;;;;;;;28.34;34.54;100660.09;5051874;28;20033;-71
2022/07/14 09:10:06;;;;;;;3.72;1.98;;;;;;;28.44;32.65;100656.19;5053037;28;20029;-71
2022/07/14 09:12:32;;;;;;;8.75;2.30;;;;;;;28.51;34.04;100648.84;5051450;28;20025;-69
2022/07/14 09:17:59;;;;;;;2.15;1.30;;;;;;;28.70;31.18;100638.50;5052848;28;20079;-70
2022/07/14 09:20:31;;;;;;;3.00;1.30;;;;;;;28.32;30.91;100585.78;5051807;28;20341;-71
2022/07/14 09:22:58;;;;;;;18.08;6.95;;;;;;;28.78;34.06;100640.88;5034085;28;20033;-71
2022/07/14 09:25:25;;;;;;;8.07;1.58;;;;;;;28.85;31.04;100622.00;5040711;28;20117;-71
2022/07/14 09:27:51;;;;;;;3.05;1.10;;;;;;;28.95;30.83;100637.56;5031393;28;20080;-69
2022/07/14 09:30:17;;;;;;;7.88;1.67;;;;;;;28.99;31.27;100617.94;5032411;28;20025;-69
2022/07/14 09:32:58;;;;;;;1.30;1.10;;;;;;;28.98;34.88;100584.31;5032591;28;20029;-71
2022/07/14 09:35:36;;;;;;;7.28;1.30;;;;;;;29.26;34.42;100639.06;5032349;28;20033;-70
2022/07/14 09:38:20;;;;;;;2.63;1.10;;;;;;;28.94;34.00;100606.63;5032437;28;20022;-70
2022/07/14 09:40:47;;;;;;;4.57;1.17;;;;;;;28.88;33.23;100602.41;5031786;28;20063;-72
2022/07/14 09:43:14;;;;;;;7.65;1.40;;;;;;;28.99;33.09;100613.50;5040828;28;20124;-72
2022/07/14 09:45:45;;;;;;;2.13;1.05;;;;;;;28.96;32.36;100612.75;5041394;28;20029;-72
2022/07/14 09:48:18;;;;;;;3.22;1.20;;;;;;;28.71;31.80;100609.22;5051767;28;20032;-73
2022/07/14 09:50:47;;;;;;;3.67;1.35;;;;;;;28.78;34.04;100614.31;5052093;28;20032;-70
2022/07/14 09:53:25;;;;;;;2.83;1.10;;;;;;;28.71;33.90;100564.06;5051962;28;20025;-70
2022/07/14 09:56:10;;;;;;;2.35;0.93;;;;;;;29.26;32.89;100610.72;5039328;28;20546;-71
2022/07/14 09:58:45;;;;;;;3.80;1.00;;;;;;;29.49;30.38;100609.81;5041014;28;20059;-70
2022/07/14 10:01:19;;;;;;;2.03;1.00;;;;;;;29.51;31.50;100581.38;5049332;28;20048;-70
2022/07/14 10:03:50;;;;;;;4.80;1.15;;;;;;;29.78;34.19;100614.91;5043406;28;20191;-74
2022/07/14 10:06:16;;;;;;;1.10;0.80;;;;;;;29.77;28.64;100599.84;5037893;28;20095;-71
2022/07/14 10:08:45;;;;;;;5.10;1.45;;;;;;;29.70;29.49;100572.66;5038414;28;20067;-72
2022/07/14 10:11:12;;;;;;;6.97;1.20;;;;;;;30.14;29.30;100590.34;5039177;28;20164;-71
2022/07/14 10:13:38;;;;;;;5.93;1.63;;;;;;;30.19;28.76;100553.75;5041042;28;20498;-70
2022/07/14 10:16:04;;;;;;;1.77;1.00;;;;;;;30.72;29.97;100608.28;5048843;28;20037;-70
2022/07/14 10:18:33;;;;;;;1.52;1.00;;;;;;;30.83;28.13;100607.78;5048262;28;20481;-72
2022/07/14 10:21:04;;;;;;;5.38;1.30;;;;;;;30.98;28.65;100606.22;5048263;28;20072;-71
2022/07/14 10:23:30;;;;;;;4.03;1.10;;;;;;;31.09;28.41;100601.28;5048316;28;20059;-72
2022/07/14 10:25:57;;;;;;;3.28;1.13;;;;;;;31.25;28.07;100589.88;5048324;28;20509;-71
2022/07/14 10:28:23;;;;;;;3.22;1.25;;;;;;;31.37;26.62;100591.94;5050949;28;20021;-70
2022/07/14 10:31:16;;;;;;;8.85;2.58;;;;;;;31.46;26.99;100591.50;5050824;28;20035;-74
2022/07/14 10:34:14;;;;;;;5.93;1.40;;;;;;;31.57;28.20;100598.13;5047258;28;20083;-71
2022/07/14 10:36:48;;;;;;;6.70;1.42;;;;;;;31.64;31.69;100556.00;5049389;28;20479;-73
2022/07/14 10:39:38;;;;;;;10.30;1.52;;;;;;;32.00;29.72;100589.78;5048675;28;20021;-74
2022/07/14 10:42:32;;;;;;;5.25;1.63;;;;;;;32.06;27.25;100573.47;5049903;28;20017;-72
2022/07/14 10:45:01;;;;;;;1.42;1.10;;;;;;;31.93;25.18;100563.41;5049615;28;20037;-70
2022/07/14 10:47:48;;;;;;;4.47;1.00;;;;;;;32.00;27.38;100573.78;5050179;28;20437;-70
2022/07/14 10:50:21;;;;;;;2.50;1.10;;;;;;;32.01;25.36;100571.00;5031295;28;20158;-70
2022/07/14 10:53:05;;;;;;;2.03;1.40;;;;;;;31.93;27.76;100567.91;5031683;28;20064;-70
2022/07/14 10:55:30;;;;;;;3.65;1.10;;;;;;;31.70;28.45;100569.94;5030977;28;20479;-71
2022/07/14 10:57:59;;;;;;;2.28;1.02;;;;;;;31.76;26.76;100550.06;5046419;28;20044;-72
2022/07/14 11:00:55;;;;;;;2.33;0.90;;;;;;;32.11;26.84;100563.41;5030972;28;20033;-71
2022/07/14 11:03:21;;;;;;;2.83;0.95;;;;;;;31.98;29.27;100533.81;5030857;28;20017;-72
2022/07/14 11:06:12;;;;;;;3.55;1.25;;;;;;;32.49;26.44;100559.66;5046473;28;20392;-71
2022/07/14 11:08:43;;;;;;;2.45;1.05;;;;;;;31.94;26.89;100503.72;5030888;28;20026;-74
2022/07/14 11:11:21;;;;;;;11.43;1.45;;;;;;;32.28;29.16;100553.66;5031300;28;20116;-72
2022/07/14 11:14:03;;;;;;;3.10;1.08;;;;;;;32.39;28.30;100554.84;5039366;28;20167;-72
2022/07/14 11:16:49;;;;;;;4.47;1.20;;;;;;;32.39;28.91;100554.84;5043797;28;20036;-71
2022/07/14 11:19:23;;;;;;;3.42;1.10;;;;;;;31.92;26.90;100502.09;5046742;28;20457;-74
2022/07/14 11:22:28;;;;;;;1.40;1.00;;;;;;;31.62;25.43;100548.06;5050538;28;20033;-69
2022/07/14 11:24:58;;;;;;;3.17;1.10;;;;;;;31.65;29.28;100513.22;5008346;28;20205;-69
2022/07/14 11:27:41;;;;;;;6.47;1.25;;;;;;;31.77;26.70;100474.38;5008411;28;20198;-73
2022/07/14 11:30:29;;;;;;;2.50;1.25;;;;;;;32.55;30.60;100540.63;4976635;28;20046;-70
2022/07/14 11:33:07;;;;;;;2.17;1.20;;;;;;;32.74;25.51;100528.03;5012256;28;20026;-72
2022/07/14 11:38:26;;;;;;;5.50;1.00;;;;;;;33.12;25.63;100532.16;5012890;28;20105;-70
2022/07/14 11:40:54;;;;;;;2.97;1.10;;;;;;;33.20;27.62;100551.34;4995517;28;20042;-70
2022/07/14 11:43:30;;;;;;;;;;;;;;;33.33;25.73;100534.59;5012535;28;20891;-69
2022/07/14 11:45:58;;;;;;;14.45;2.97;;;;;;;33.25;24.46;100526.13;4994774;28;19909;-73